createdAt,value
2023-05-06T00:00:09.454Z,70.84
2023-05-06T00:02:41.892Z,70.69
2023-05-06T00:05:11.569Z,70.66
2023-05-06T00:07:40.341Z,70.57
2023-05-06T00:10:10.199Z,70.51
2023-05-06T00:12:39.157Z,70.72
2023-05-06T00:15:08.693Z,70.46
2023-05-06T00:17:38.125Z,70.39
2023-05-06T00:20:10.915Z,70.31
2023-05-06T00:22:40.066Z,70.20
2023-05-06T00:25:09.086Z,70.21
2023-05-06T00:27:39.148Z,70.12
2023-05-06T00:30:08.772Z,70.13
2023-05-06T00:32:37.918Z,70.22
2023-05-06T00:35:09.527Z,70.12
2023-05-06T00:37:39.202Z,70.21
2023-05-06T00:40:11.054Z,70.30
2023-05-06T00:42:39.373Z,70.46
2023-05-06T00:45:08.975Z,70.43
2023-05-06T00:47:38.340Z,70.48
2023-05-06T00:50:09.354Z,70.96
2023-05-06T00:52:38.755Z,70.69
2023-05-06T00:55:08.205Z,70.72
2023-05-06T00:57:36.821Z,70.46
2023-05-06T01:00:07.989Z,70.61
2023-05-06T01:02:46.547Z,70.61
2023-05-06T01:05:21.421Z,70.59
2023-05-06T01:08:05.585Z,70.71
2023-05-06T01:10:38.615Z,70.69
2023-05-06T01:13:13.208Z,70.61
2023-05-06T01:15:46.329Z,70.84
2023-05-06T01:18:18.530Z,71.05
2023-05-06T01:20:51.460Z,71.12
2023-05-06T01:23:21.798Z,71.23
2023-05-06T01:25:51.633Z,71.08
2023-05-06T01:28:20.075Z,71.33
2023-05-06T01:31:06.849Z,71.28
2023-05-06T01:33:43.382Z,71.21
2023-05-06T01:36:24.432Z,71.41
2023-05-06T01:39:01.284Z,71.40
2023-05-06T01:41:34.977Z,71.70
2023-05-06T01:44:06.815Z,71.76
2023-05-06T01:46:37.232Z,71.84
2023-05-06T01:49:11.637Z,71.75
2023-05-06T01:51:40.320Z,72.16
2023-05-06T01:54:11.127Z,72.42
2023-05-06T01:56:40.574Z,72.86
2023-05-06T01:59:09.023Z,72.94
2023-05-06T02:01:37.922Z,73.09
2023-05-06T02:04:09.045Z,73.28
2023-05-06T02:06:37.835Z,73.49
2023-05-06T02:09:08.489Z,73.23
2023-05-06T02:11:43.766Z,73.43
2023-05-06T02:14:13.923Z,73.45
2023-05-06T02:16:42.370Z,73.65
2023-05-06T02:19:11.966Z,73.68
2023-05-06T02:21:40.414Z,73.66
2023-05-06T02:24:09.965Z,73.45
2023-05-06T02:26:39.823Z,73.29
2023-05-06T02:29:09.527Z,72.98
2023-05-06T02:31:38.458Z,72.85
2023-05-06T02:34:06.973Z,72.82
2023-05-06T02:36:35.881Z,72.63
2023-05-06T02:39:04.950Z,72.45
2023-05-06T02:41:34.640Z,72.32
2023-05-06T02:44:03.797Z,72.63
2023-05-06T02:46:34.275Z,72.31
2023-05-06T02:49:02.988Z,72.52
2023-05-06T02:51:31.870Z,72.39
2023-05-06T02:54:00.705Z,72.17
2023-05-06T02:56:29.529Z,72.22
2023-05-06T02:58:58.037Z,72.19
2023-05-06T03:01:26.592Z,72.00
2023-05-06T03:03:56.884Z,71.99
2023-05-06T03:06:25.338Z,72.06
2023-05-06T03:08:54.027Z,72.12
2023-05-06T03:11:23.366Z,72.00
2023-05-06T03:13:51.830Z,71.92
2023-05-06T03:16:21.116Z,71.73
2023-05-06T03:18:53.388Z,71.61
2023-05-06T03:21:23.836Z,71.51
2023-05-06T03:23:53.862Z,71.65
2023-05-06T03:26:42.484Z,71.64
2023-05-06T03:29:13.554Z,71.67
2023-05-06T03:31:45.145Z,71.74
2023-05-06T03:34:14.548Z,71.76
2023-05-06T03:36:45.468Z,71.59
2023-05-06T03:39:14.036Z,71.43
2023-05-06T03:41:43.918Z,71.34
2023-05-06T03:44:12.829Z,71.52
2023-05-06T03:46:42.389Z,71.59
2023-05-06T03:49:11.825Z,71.26
2023-05-06T03:51:41.262Z,71.30
2023-05-06T03:54:13.609Z,71.50
2023-05-06T03:56:42.083Z,71.32
2023-05-06T03:59:11.693Z,71.46
2023-05-06T04:01:40.709Z,71.35
2023-05-06T04:04:11.350Z,71.24
2023-05-06T04:06:40.596Z,71.35
2023-05-06T04:09:10.061Z,71.14
2023-05-06T04:11:42.070Z,71.35
2023-05-06T04:14:13.991Z,71.41
2023-05-06T04:16:42.704Z,71.52
2023-05-06T04:19:11.957Z,71.52
2023-05-06T04:21:41.134Z,71.37
2023-05-06T04:24:13.746Z,71.37
2023-05-06T04:26:44.756Z,71.54
2023-05-06T04:29:13.616Z,71.54
2023-05-06T04:31:54.349Z,71.50
2023-05-06T04:34:24.990Z,71.41
2023-05-06T04:36:54.721Z,71.37
2023-05-06T04:39:39.388Z,71.48
2023-05-06T04:42:10.215Z,71.47
2023-05-06T04:44:46.902Z,71.44
2023-05-06T04:47:15.381Z,71.56
2023-05-06T04:49:48.998Z,71.59
2023-05-06T04:52:17.930Z,71.68
2023-05-06T04:54:46.845Z,71.53
2023-05-06T04:57:16.646Z,71.61
2023-05-06T04:59:47.193Z,71.54
2023-05-06T05:02:15.694Z,71.52
2023-05-06T05:04:45.651Z,71.56
2023-05-06T05:07:14.155Z,71.85
2023-05-06T05:09:44.837Z,71.77
2023-05-06T05:12:13.305Z,71.79
2023-05-06T05:14:48.955Z,72.08
2023-05-06T05:17:17.779Z,72.13
2023-05-06T05:19:48.614Z,72.16
2023-05-06T05:22:18.636Z,72.15
2023-05-06T05:24:47.074Z,72.04
2023-05-06T05:27:19.010Z,72.34
2023-05-06T05:29:48.981Z,72.31
2023-05-06T05:32:18.616Z,72.51
2023-05-06T05:34:47.450Z,72.58
2023-05-06T05:37:17.349Z,72.55
2023-05-06T05:39:45.831Z,72.46
2023-05-06T05:42:16.893Z,72.39
2023-05-06T05:44:47.568Z,72.39
2023-05-06T05:47:17.368Z,72.27
2023-05-06T05:49:47.220Z,72.15
2023-05-06T05:52:15.824Z,72.42
2023-05-06T05:54:44.676Z,72.13
2023-05-06T05:57:13.427Z,72.06
2023-05-06T05:59:43.291Z,71.86
2023-05-06T06:02:11.776Z,71.76
2023-05-06T06:04:42.455Z,71.58
2023-05-06T06:07:11.100Z,71.67
2023-05-06T06:09:43.200Z,71.55
2023-05-06T06:12:12.083Z,71.40
2023-05-06T06:14:42.014Z,71.31
2023-05-06T06:17:11.133Z,71.25
2023-05-06T06:19:41.073Z,71.10
2023-05-06T06:22:09.979Z,70.83
2023-05-06T06:24:38.471Z,70.68
2023-05-06T06:27:07.278Z,70.61
2023-05-06T06:29:35.695Z,70.58
2023-05-06T06:32:05.265Z,70.32
2023-05-06T06:34:33.850Z,70.31
2023-05-06T06:37:04.970Z,70.06
2023-05-06T06:39:34.142Z,69.99
2023-05-06T06:42:04.231Z,70.09
2023-05-06T06:44:39.584Z,69.90
2023-05-06T06:47:08.259Z,69.78
2023-05-06T06:49:37.084Z,69.78
2023-05-06T06:52:06.949Z,69.46
2023-05-06T06:54:35.939Z,69.36
2023-05-06T06:57:04.462Z,69.16
2023-05-06T06:59:32.830Z,68.76
2023-05-06T07:02:02.366Z,68.66
2023-05-06T07:04:30.875Z,68.57
2023-05-06T07:07:00.150Z,68.08
2023-05-06T07:09:29.929Z,67.79
2023-05-06T07:11:59.632Z,67.39
2023-05-06T07:14:28.075Z,67.04
2023-05-06T07:16:56.971Z,67.20
2023-05-06T07:19:25.809Z,66.99
2023-05-06T07:21:54.652Z,66.78
2023-05-06T07:24:23.247Z,66.95
2023-05-06T07:26:54.562Z,66.95
2023-05-06T07:29:22.998Z,66.58
2023-05-06T07:31:51.786Z,66.39
2023-05-06T07:34:21.235Z,66.01
2023-05-06T07:36:50.540Z,66.02
2023-05-06T07:39:19.428Z,65.98
2023-05-06T07:41:47.802Z,65.87
2023-05-06T07:44:18.548Z,65.79
2023-05-06T07:46:47.000Z,65.92
2023-05-06T07:49:15.921Z,65.89
2023-05-06T07:51:45.482Z,65.89
2023-05-06T07:54:14.298Z,65.72
2023-05-06T07:56:44.434Z,65.60
2023-05-06T07:59:12.891Z,65.58
2023-05-06T08:01:45.562Z,65.43
2023-05-06T08:04:14.242Z,65.27
2023-05-06T08:06:43.156Z,65.40
2023-05-06T08:09:17.002Z,65.14
2023-05-06T08:11:51.052Z,64.72
2023-05-06T08:14:19.970Z,64.50
2023-05-06T08:16:50.349Z,64.48
2023-05-06T08:19:19.794Z,63.71
2023-05-06T08:21:48.732Z,63.84
2023-05-06T08:24:17.594Z,63.54
2023-05-06T08:26:45.972Z,63.10
2023-05-06T08:29:14.805Z,63.03
2023-05-06T08:31:44.647Z,62.92
2023-05-06T08:34:14.574Z,62.79
2023-05-06T08:36:43.445Z,62.52
2023-05-06T08:39:13.678Z,62.16
2023-05-06T08:41:46.180Z,62.51
2023-05-06T08:44:17.520Z,62.25
2023-05-06T08:46:46.195Z,62.35
2023-05-06T08:49:17.067Z,62.32
2023-05-06T08:51:46.211Z,62.14
2023-05-06T08:54:15.349Z,62.02
2023-05-06T08:56:49.128Z,61.15
2023-05-06T08:59:20.957Z,61.06
2023-05-06T09:01:49.685Z,60.91
2023-05-06T09:04:20.725Z,60.97
2023-05-06T09:06:49.136Z,61.17
2023-05-06T09:09:17.499Z,60.97
2023-05-06T09:11:46.406Z,60.79
2023-05-06T09:14:16.612Z,60.56
2023-05-06T09:16:47.566Z,59.88
2023-05-06T09:19:17.168Z,59.98
2023-05-06T09:21:49.487Z,58.82
2023-05-06T09:24:18.571Z,58.75
2023-05-06T09:26:48.602Z,58.63
2023-05-06T09:29:17.017Z,58.15
2023-05-06T09:31:46.582Z,57.77
2023-05-06T09:34:17.477Z,57.57
2023-05-06T09:36:47.229Z,56.71
2023-05-06T09:39:15.981Z,56.46
2023-05-06T09:41:44.602Z,56.26
2023-05-06T09:44:13.200Z,55.73
2023-05-06T09:46:42.193Z,54.96
2023-05-06T09:49:11.586Z,54.49
2023-05-06T09:51:41.933Z,53.95
2023-05-06T09:54:13.115Z,53.49
2023-05-06T09:56:42.760Z,53.46
2023-05-06T09:59:12.137Z,53.25
2023-05-06T10:01:41.346Z,52.64
2023-05-06T10:04:12.781Z,51.69
2023-05-06T10:06:41.943Z,51.32
2023-05-06T10:09:12.092Z,50.54
2023-05-06T10:11:41.082Z,49.26
2023-05-06T10:14:11.190Z,48.68
2023-05-06T10:16:41.322Z,48.63
2023-05-06T10:19:10.789Z,48.14
2023-05-06T10:21:46.585Z,48.24
2023-05-06T10:24:19.514Z,47.92
2023-05-06T10:26:50.396Z,47.91
2023-05-06T10:29:20.745Z,47.63
2023-05-06T10:31:54.051Z,46.99
2023-05-06T10:34:24.259Z,46.56
2023-05-06T10:36:57.783Z,46.66
2023-05-06T10:39:29.206Z,46.57
2023-05-06T10:41:57.968Z,46.00
2023-05-06T10:45:01.091Z,45.61
2023-05-06T10:47:29.601Z,46.09
2023-05-06T10:50:22.222Z,45.81
2023-05-06T10:52:53.453Z,45.16
2023-05-06T10:55:31.031Z,44.48
2023-05-06T10:58:04.885Z,44.09
2023-05-06T11:00:34.113Z,43.47
2023-05-06T11:03:05.178Z,42.93
2023-05-06T11:05:36.934Z,42.80
2023-05-06T11:08:12.588Z,42.51
2023-05-06T11:10:42.932Z,42.30
2023-05-06T11:13:26.721Z,42.44
2023-05-06T11:15:56.509Z,42.42
2023-05-06T11:18:44.643Z,41.71
2023-05-06T11:21:38.910Z,41.96
2023-05-06T11:24:10.176Z,42.37
2023-05-06T11:26:41.529Z,42.81
2023-05-06T11:29:11.050Z,43.13
2023-05-06T11:31:41.652Z,43.36
2023-05-06T11:34:13.161Z,43.59
2023-05-06T11:36:50.669Z,43.43
2023-05-06T11:39:19.211Z,43.84
2023-05-06T11:41:50.632Z,44.05
2023-05-06T11:44:26.515Z,43.79
2023-05-06T11:47:04.302Z,42.86
2023-05-06T11:49:38.376Z,42.51
2023-05-06T11:52:07.656Z,42.03
2023-05-06T11:54:37.346Z,41.43
2023-05-06T11:57:08.757Z,41.01
2023-05-06T11:59:38.459Z,40.91
2023-05-06T12:02:09.013Z,40.65
2023-05-06T12:04:42.485Z,40.08
2023-05-06T12:07:12.673Z,39.12
2023-05-06T12:09:43.456Z,38.69
2023-05-06T12:12:18.083Z,38.04
2023-05-06T12:14:47.649Z,37.61
2023-05-06T12:17:18.163Z,37.14
2023-05-06T12:19:47.417Z,37.05
2023-05-06T12:22:18.393Z,36.66
2023-05-06T12:24:47.248Z,36.62
2023-05-06T12:27:30.953Z,36.12
2023-05-06T12:30:01.084Z,35.93
2023-05-06T12:32:29.574Z,35.47
2023-05-06T12:35:06.033Z,35.19
2023-05-06T12:37:34.443Z,35.33
2023-05-06T12:40:04.205Z,35.05
2023-05-06T12:42:34.588Z,34.50
2023-05-06T12:45:15.338Z,34.27
2023-05-06T12:47:53.941Z,34.02
2023-05-06T12:50:35.432Z,33.59
2023-05-06T12:53:04.047Z,33.30
2023-05-06T12:55:33.082Z,32.64
2023-05-06T12:58:04.081Z,32.22
2023-05-06T13:00:32.575Z,31.24
2023-05-06T13:03:01.987Z,31.35
2023-05-06T13:05:30.528Z,31.27
2023-05-06T13:08:00.460Z,30.97
2023-05-06T13:10:28.926Z,30.77
2023-05-06T13:12:57.893Z,30.05
2023-05-06T13:15:28.713Z,30.48
2023-05-06T13:17:57.285Z,30.10
2023-05-06T13:20:27.472Z,29.32
2023-05-06T13:22:56.305Z,29.06
2023-05-06T13:25:24.778Z,29.21
2023-05-06T13:27:55.542Z,28.87
2023-05-06T13:30:23.976Z,28.56
2023-05-06T13:32:54.611Z,29.17
2023-05-06T13:35:23.013Z,29.30
2023-05-06T13:37:52.469Z,28.98
2023-05-06T13:40:22.377Z,28.67
2023-05-06T13:42:50.740Z,29.01
2023-05-06T13:45:19.614Z,29.45
2023-05-06T13:47:48.097Z,29.05
2023-05-06T13:50:19.386Z,28.66
2023-05-06T13:52:47.822Z,28.18
2023-05-06T13:55:19.303Z,28.06
2023-05-06T13:57:47.879Z,27.45
2023-05-06T14:00:18.389Z,27.36
2023-05-06T14:02:47.070Z,27.22
2023-05-06T14:05:17.508Z,26.83
2023-05-06T14:07:47.372Z,26.66
2023-05-06T14:10:16.931Z,26.74
2023-05-06T14:12:45.440Z,26.53
2023-05-06T14:15:15.908Z,26.47
2023-05-06T14:17:45.109Z,26.06
2023-05-06T14:20:13.598Z,26.42
2023-05-06T14:22:42.886Z,26.13
2023-05-06T14:25:13.105Z,25.95
2023-05-06T14:27:42.062Z,26.22
2023-05-06T14:30:11.548Z,26.54
2023-05-06T14:32:40.011Z,26.16
2023-05-06T14:35:10.888Z,26.47
2023-05-06T14:37:39.720Z,26.22
2023-05-06T14:40:11.376Z,26.22
2023-05-06T14:42:41.268Z,26.11
2023-05-06T14:45:11.690Z,26.83
2023-05-06T14:47:41.473Z,27.35
2023-05-06T14:50:12.051Z,26.98
2023-05-06T14:52:41.878Z,27.45
2023-05-06T14:55:12.125Z,27.60
2023-05-06T14:57:42.011Z,27.94
2023-05-06T15:00:29.229Z,27.90
2023-05-06T15:02:57.703Z,27.80
2023-05-06T15:05:27.341Z,27.93
2023-05-06T15:07:56.041Z,27.97
2023-05-06T15:10:24.406Z,27.92
2023-05-06T15:12:54.754Z,27.93
2023-05-06T15:15:23.131Z,28.29
2023-05-06T15:17:53.792Z,27.70
2023-05-06T15:20:22.161Z,28.18
2023-05-06T15:22:51.609Z,27.88
2023-05-06T15:25:33.447Z,27.66
2023-05-06T15:28:08.077Z,27.30
2023-05-06T15:30:38.186Z,27.01
2023-05-06T15:33:07.282Z,26.92
2023-05-06T15:35:35.781Z,26.95
2023-05-06T15:38:06.049Z,26.58
2023-05-06T15:40:36.883Z,27.33
2023-05-06T15:43:08.446Z,27.78
2023-05-06T15:45:38.007Z,28.10
2023-05-06T15:48:08.199Z,28.28
2023-05-06T15:50:37.899Z,28.75
2023-05-06T15:53:06.577Z,29.08
2023-05-06T15:55:45.203Z,29.34
2023-05-06T15:58:18.092Z,29.40
2023-05-06T16:00:46.565Z,28.83
2023-05-06T16:03:15.530Z,28.84
2023-05-06T16:05:44.077Z,29.13
2023-05-06T16:08:13.998Z,29.21
2023-05-06T16:10:42.489Z,28.77
2023-05-06T16:13:11.828Z,29.09
2023-05-06T16:15:42.731Z,28.68
2023-05-06T16:18:11.411Z,28.72
2023-05-06T16:20:40.279Z,28.73
2023-05-06T16:23:08.699Z,28.21
2023-05-06T16:25:39.387Z,28.69
2023-05-06T16:28:08.781Z,29.15
2023-05-06T16:30:38.085Z,29.07
2023-05-06T16:33:08.338Z,29.03
2023-05-06T16:35:37.244Z,29.48
2023-05-06T16:38:06.048Z,29.05
2023-05-06T16:40:41.725Z,29.36
2023-05-06T16:43:10.934Z,28.84
2023-05-06T16:45:39.705Z,29.35
2023-05-06T16:48:09.992Z,29.19
2023-05-06T16:50:38.423Z,29.53
2023-05-06T16:53:08.124Z,29.40
2023-05-06T16:55:37.067Z,29.57
2023-05-06T16:58:05.511Z,29.92
2023-05-06T17:00:34.358Z,29.72
2023-05-06T17:03:03.841Z,29.28
2023-05-06T17:05:34.693Z,29.26
2023-05-06T17:08:03.532Z,29.79
2023-05-06T17:10:33.009Z,29.84
2023-05-06T17:13:01.974Z,30.06
2023-05-06T17:15:30.398Z,29.96
2023-05-06T17:17:59.621Z,30.40
2023-05-06T17:20:28.070Z,30.75
2023-05-06T17:22:58.669Z,31.11
2023-05-06T17:25:27.166Z,31.38
2023-05-06T17:27:56.701Z,31.48
2023-05-06T17:30:25.266Z,31.78
2023-05-06T17:32:54.803Z,32.09
2023-05-06T17:35:23.146Z,32.26
2023-05-06T17:37:56.803Z,32.26
2023-05-06T17:40:26.525Z,32.31
2023-05-06T17:42:56.085Z,32.67
2023-05-06T17:45:25.849Z,33.00
2023-05-06T17:47:54.300Z,33.53
2023-05-06T17:50:23.988Z,34.23
2023-05-06T17:52:52.922Z,34.81
2023-05-06T17:55:22.753Z,35.50
2023-05-06T17:57:53.508Z,36.04
2023-05-06T18:00:23.265Z,36.29
2023-05-06T18:02:52.127Z,36.68
2023-05-06T18:05:22.215Z,36.94
2023-05-06T18:07:50.976Z,37.26
2023-05-06T18:10:20.032Z,37.77
2023-05-06T18:12:49.356Z,38.11
2023-05-06T18:15:19.136Z,38.18
2023-05-06T18:17:47.986Z,38.82
2023-05-06T18:20:16.747Z,39.58
2023-05-06T18:22:45.139Z,39.95
2023-05-06T18:25:15.225Z,40.65
2023-05-06T18:27:43.574Z,40.82
2023-05-06T18:30:13.476Z,41.10
2023-05-06T18:32:43.205Z,41.71
2023-05-06T18:35:12.963Z,42.35
2023-05-06T18:37:41.573Z,42.38
2023-05-06T18:40:12.012Z,42.93
2023-05-06T18:42:40.428Z,43.06
2023-05-06T18:45:11.881Z,43.63
2023-05-06T18:47:40.486Z,43.95
2023-05-06T18:50:12.741Z,43.94
2023-05-06T18:52:41.315Z,44.45
2023-05-06T18:55:10.635Z,45.20
2023-05-06T18:57:39.535Z,44.96
2023-05-06T19:00:09.429Z,44.97
2023-05-06T19:02:38.414Z,45.58
2023-05-06T19:05:08.407Z,46.03
2023-05-06T19:07:39.180Z,46.45
2023-05-06T19:10:08.986Z,46.28
2023-05-06T19:12:37.425Z,46.57
2023-05-06T19:15:07.224Z,46.74
2023-05-06T19:17:35.881Z,46.67
2023-05-06T19:20:05.162Z,47.00
2023-05-06T19:22:34.419Z,47.00
2023-05-06T19:25:04.841Z,47.29
2023-05-06T19:27:33.244Z,47.50
2023-05-06T19:30:03.175Z,47.91
2023-05-06T19:32:32.849Z,47.90
2023-05-06T19:35:07.957Z,47.96
2023-05-06T19:37:37.229Z,48.13
2023-05-06T19:40:09.119Z,48.46
2023-05-06T19:42:37.899Z,48.38
2023-05-06T19:45:10.192Z,48.91
2023-05-06T19:47:39.741Z,48.67
2023-05-06T19:50:09.310Z,49.05
2023-05-06T19:52:38.386Z,48.83
2023-05-06T19:55:09.542Z,48.97
2023-05-06T19:57:39.031Z,48.90
2023-05-06T20:00:10.183Z,49.10
2023-05-06T20:02:39.534Z,49.36
2023-05-06T20:05:09.005Z,49.07
2023-05-06T20:07:38.246Z,49.45
2023-05-06T20:10:10.058Z,49.70
2023-05-06T20:12:38.490Z,50.12
2023-05-06T20:15:08.685Z,50.24
2023-05-06T20:17:37.406Z,50.62
2023-05-06T20:20:09.839Z,50.27
2023-05-06T20:22:39.440Z,50.50
2023-05-06T20:25:14.464Z,50.88
2023-05-06T20:27:44.066Z,50.92
2023-05-06T20:30:12.836Z,51.03
2023-05-06T20:32:42.453Z,51.07
2023-05-06T20:35:12.644Z,50.78
2023-05-06T20:37:41.730Z,51.46
2023-05-06T20:40:12.697Z,51.53
2023-05-06T20:42:42.020Z,51.70
2023-05-06T20:45:11.153Z,51.84
2023-05-06T20:47:40.242Z,51.93
2023-05-06T20:50:09.301Z,52.01
2023-05-06T20:52:38.122Z,52.17
2023-05-06T20:55:07.645Z,52.40
2023-05-06T20:57:43.000Z,52.50
2023-05-06T21:00:12.286Z,52.51
2023-05-06T21:02:42.189Z,52.87
2023-05-06T21:05:11.492Z,53.07
2023-05-06T21:07:40.985Z,52.79
2023-05-06T21:10:11.353Z,53.00
2023-05-06T21:12:41.588Z,53.10
2023-05-06T21:15:11.184Z,53.36
2023-05-06T21:17:39.793Z,53.29
2023-05-06T21:20:09.665Z,53.49
2023-05-06T21:22:39.599Z,53.72
2023-05-06T21:25:09.752Z,53.71
2023-05-06T21:27:38.770Z,53.80
2023-05-06T21:30:10.449Z,53.83
2023-05-06T21:32:39.576Z,53.82
2023-05-06T21:35:08.944Z,53.92
2023-05-06T21:37:37.911Z,54.14
2023-05-06T21:40:07.132Z,54.15
2023-05-06T21:42:37.059Z,54.30
2023-05-06T21:45:06.330Z,54.27
2023-05-06T21:47:36.897Z,54.61
2023-05-06T21:50:07.213Z,54.55
2023-05-06T21:52:35.671Z,54.88
2023-05-06T21:55:05.260Z,54.69
2023-05-06T21:57:33.676Z,55.02
2023-05-06T22:00:08.342Z,55.14
2023-05-06T22:02:38.120Z,55.03
2023-05-06T22:05:07.520Z,55.20
2023-05-06T22:07:36.080Z,55.34
2023-05-06T22:10:05.853Z,55.36
2023-05-06T22:12:37.241Z,55.38
2023-05-06T22:15:07.842Z,55.62
2023-05-06T22:17:36.917Z,55.78
2023-05-06T22:20:10.936Z,55.64
2023-05-06T22:22:41.101Z,55.56
2023-05-06T22:25:10.730Z,55.72
2023-05-06T22:27:39.369Z,55.65
2023-05-06T22:30:11.028Z,55.84
2023-05-06T22:32:39.837Z,56.03
2023-05-06T22:35:11.111Z,55.95
2023-05-06T22:37:39.634Z,56.06
2023-05-06T22:40:10.495Z,56.33
2023-05-06T22:42:39.251Z,56.22
2023-05-06T22:45:09.590Z,56.39
2023-05-06T22:47:38.584Z,56.36
2023-05-06T22:50:09.734Z,56.59
2023-05-06T22:52:38.065Z,56.69
2023-05-06T22:55:09.708Z,56.71
2023-05-06T22:57:38.325Z,56.64
2023-05-06T23:00:08.746Z,56.78
2023-05-06T23:02:37.281Z,56.74
2023-05-06T23:05:06.755Z,56.84
2023-05-06T23:07:37.615Z,56.72
2023-05-06T23:10:07.423Z,56.99
2023-05-06T23:12:36.468Z,57.12
2023-05-06T23:15:05.611Z,57.25
2023-05-06T23:17:34.666Z,57.21
2023-05-06T23:20:03.493Z,57.56
2023-05-06T23:22:32.729Z,57.62
2023-05-06T23:25:03.666Z,57.62
2023-05-06T23:27:32.164Z,57.69
2023-05-06T23:30:01.736Z,57.74
2023-05-06T23:32:30.099Z,57.68
2023-05-06T23:34:59.393Z,57.82
2023-05-06T23:37:27.947Z,58.00
2023-05-06T23:39:59.691Z,58.06
2023-05-06T23:42:29.792Z,58.03
2023-05-06T23:45:00.020Z,58.12
2023-05-06T23:47:29.269Z,58.30
2023-05-06T23:49:58.712Z,58.37
2023-05-06T23:52:27.959Z,58.34
2023-05-06T23:54:56.265Z,58.37
2023-05-06T23:57:25.136Z,58.59
2023-05-06T23:59:54.778Z,58.45
